Canada's Largest FIR

CZEG Edmonton

Screenshot by Brad Derzaph

  Recent News


  Upcoming Events

Northern Lights Tuesdays  March 5, 2024 23:59z

  Online Controllers

CYEG_TWR on 118.300

CZEG_FSS on 135.025

CYEG_APP on 120.500

CYMM_TWR on 118.100

  View Our Airspace

  Weather

CYYC - Calgary International Airport   VFR
CYYC 050300Z 21007KT 140V240 15SM FEW170 BKN230 M19/M23 A2983 RMK AC1CI5 SLP207

CYEG - Edmonton International Airport   VFR
CYEG 050300Z 28004KT 20SM -SN FEW030 BKN110 M22/M25 A2993 RMK SC1AS4 FROIN SLP213

CYXY - Whitehorse / Erik Nielsen International Airport   VFR
CYXY 050300Z 19008KT 40SM FEW100 M16/M25 A2997 RMK AC1 AC TR SLP228

CYZF - Yellowknife International Airport   VFR
CYZF 050300Z 13004KT 15SM FEW240 M28/M30 A3015 RMK CI1 CI TR SLP246

CYMM - Fort McMurray Airport   IFR
CYMM 050315Z AUTO 31006KT 1 3/4SM -SN BKN035 OVC100 M19/M22 A2999 RMK SLP197

CYQF - Red Deer Regional Airport   VFR
CYQF 050300Z AUTO 31006KT 9SM BKN071 OVC091 M18/M22 A2989 RMK SLP215

CZVL - Edmonton / Villeneuve Airport   MVFR
CZVL 050300Z AUTO 00000KT 4SM -SN BKN039 M21/M23 A2993 RMK SLP208

CYBW - Calgary / Springbank Airport   VFR
CYBW 050300Z AUTO 18004KT 9SM -SN BKN036 OVC210 M22/M25 A2980 RMK SLP209

CYOD - CFB Cold Lake   VFR
CYOD 050300Z 26006KT 15SM FEW030 M23/M27 A2994 RMK SC2 DENSITY ALT -2969FT SLP200